Time;durP1;ratioP1;P1;durP2;ratioP2;P2;SDS_P1;SDS_P2;PMS_P1;PMS_P2;Temp;Humidity;BMP_temperature;BMP_pressure;BME280_temperature;BME280_humidity;BME280_pressure;Samples;Min_cycle;Max_cycle;Signal;HPM_P1;HPM_P2
2022/05/30 00:01:53;;;;;;;14.90;3.03;;;;;;;9.99;100.00;101009.66;5077400;28;20105;-80
2022/05/30 00:04:20;;;;;;;10.05;2.58;;;;;;;9.91;100.00;101021.16;5073902;28;20025;-80
2022/05/30 00:06:45;;;;;;;14.32;3.40;;;;;;;9.89;100.00;101022.28;5092755;28;20069;-80
2022/05/30 00:09:13;;;;;;;12.68;2.72;;;;;;;9.86;100.00;101020.63;5073017;28;20041;-79
2022/05/30 00:11:40;;;;;;;12.75;2.97;;;;;;;9.92;100.00;101017.44;5100209;28;20036;-80
2022/05/30 00:14:06;;;;;;;13.40;3.33;;;;;;;9.90;100.00;101007.59;5090173;28;20035;-80
2022/05/30 00:16:33;;;;;;;11.75;2.70;;;;;;;9.89;100.00;101011.34;5099576;28;20032;-79
2022/05/30 00:18:59;;;;;;;10.55;2.70;;;;;;;9.88;100.00;101006.84;5097154;28;20032;-82
2022/05/30 00:21:27;;;;;;;9.73;2.75;;;;;;;9.86;100.00;101008.81;5062345;28;20090;-79
2022/05/30 00:23:53;;;;;;;8.80;3.00;;;;;;;9.91;100.00;101006.63;5104186;28;20040;-81
2022/05/30 00:26:20;;;;;;;10.60;3.20;;;;;;;9.89;100.00;101014.06;5089511;28;20048;-80
2022/05/30 00:28:46;;;;;;;13.82;3.53;;;;;;;9.78;100.00;101009.38;5091577;28;20119;-81
2022/05/30 00:31:14;;;;;;;13.05;3.67;;;;;;;9.82;100.00;101007.28;5100465;28;20036;-81
2022/05/30 00:33:42;;;;;;;16.08;3.50;;;;;;;9.86;100.00;101008.81;5108087;28;20056;-79
2022/05/30 00:36:08;;;;;;;18.58;3.50;;;;;;;9.82;100.00;101013.66;5101663;28;20076;-79
2022/05/30 00:38:33;;;;;;;11.18;3.75;;;;;;;9.81;100.00;101020.09;5065400;28;20033;-79
2022/05/30 00:40:59;;;;;;;18.50;3.63;;;;;;;9.65;100.00;101008.53;5091055;28;20036;-80
2022/05/30 00:43:33;;;;;;;24.27;4.10;;;;;;;9.72;100.00;101007.09;5086549;28;20040;-79
2022/05/30 00:46:01;;;;;;;11.95;3.50;;;;;;;9.67;100.00;100998.34;5100953;28;20054;-79
2022/05/30 00:48:31;;;;;;;19.65;3.40;;;;;;;9.62;100.00;100992.34;5084153;28;20050;-79
2022/05/30 00:51:22;;;;;;;12.63;4.47;;;;;;;9.71;100.00;101005.34;5075535;28;20029;-79
2022/05/30 00:53:51;;;;;;;12.02;3.33;;;;;;;9.67;100.00;100993.75;5093719;28;20091;-80
2022/05/30 00:56:17;;;;;;;11.85;3.50;;;;;;;9.68;100.00;101000.97;5102346;28;20047;-80
2022/05/30 00:58:47;;;;;;;18.02;4.45;;;;;;;9.69;100.00;100996.38;5087830;28;20040;-80
2022/05/30 01:01:13;;;;;;;16.75;3.88;;;;;;;9.81;100.00;100997.34;5099781;28;20043;-81
2022/05/30 01:06:32;;;;;;;14.30;3.08;;;;;;;9.81;100.00;100992.75;5090303;28;20120;-80
2022/05/30 01:09:07;;;;;;;13.23;3.40;;;;;;;9.73;100.00;100993.31;5079340;28;20058;-80
2022/05/30 01:12:07;;;;;;;10.60;2.88;;;;;;;9.69;100.00;100993.63;5074491;28;20539;-81
2022/05/30 01:14:39;;;;;;;12.45;3.10;;;;;;;9.69;100.00;100996.38;5043739;28;20055;-81
2022/05/30 01:17:09;;;;;;;18.20;3.92;;;;;;;9.77;100.00;100991.22;5082796;28;20097;-80
2022/05/30 01:19:53;;;;;;;12.02;3.40;;;;;;;9.74;100.00;100997.81;5095039;28;20020;-81
2022/05/30 01:22:49;;;;;;;11.57;3.70;;;;;;;9.65;100.00;100993.00;5067111;28;20066;-81
2022/05/30 01:25:48;;;;;;;10.70;4.00;;;;;;;9.60;100.00;100991.59;5091828;28;20047;-81
2022/05/30 01:28:29;;;;;;;12.27;3.85;;;;;;;9.46;100.00;100990.75;5100424;28;20047;-81
2022/05/30 01:30:55;;;;;;;12.93;4.25;;;;;;;9.50;100.00;100986.78;5083731;28;20491;-81
2022/05/30 01:33:23;;;;;;;12.63;3.63;;;;;;;9.42;100.00;100980.16;5090432;28;20036;-81
2022/05/30 01:35:49;;;;;;;17.77;3.67;;;;;;;9.44;100.00;100980.91;5091288;28;20137;-80
2022/05/30 01:38:16;;;;;;;16.67;4.15;;;;;;;9.51;100.00;100988.53;5085898;28;20041;-81
2022/05/30 01:40:41;;;;;;;14.60;4.32;;;;;;;9.38;100.00;100980.34;5070414;28;20055;-82
2022/05/30 01:43:07;;;;;;;14.10;4.53;;;;;;;9.36;100.00;100987.81;5093015;28;20040;-80
2022/05/30 01:45:32;;;;;;;19.98;4.32;;;;;;;9.34;100.00;100973.34;5083264;28;20028;-81
2022/05/30 01:47:58;;;;;;;12.73;4.20;;;;;;;9.44;100.00;100984.50;5040820;28;20036;-81
2022/05/30 01:50:26;;;;;;;15.38;3.97;;;;;;;9.36;100.00;100973.25;5081568;28;20035;-81
2022/05/30 01:52:51;;;;;;;12.50;4.05;;;;;;;9.32;100.00;100980.78;5073066;28;20480;-81
2022/05/30 01:55:17;;;;;;;14.75;4.15;;;;;;;9.30;100.00;100988.22;5042441;28;20033;-81
2022/05/30 01:57:42;;;;;;;8.65;3.85;;;;;;;9.36;100.00;100976.88;5062099;28;20064;-82
2022/05/30 02:00:12;;;;;;;15.18;4.57;;;;;;;9.37;100.00;100978.59;5064348;28;20035;-81
2022/05/30 02:02:38;;;;;;;10.32;4.43;;;;;;;9.25;100.00;100974.03;5072379;28;20028;-81
2022/05/30 02:05:06;;;;;;;11.18;4.88;;;;;;;9.31;100.00;100973.59;5074717;28;20040;-81
2022/05/30 02:07:31;;;;;;;10.50;3.67;;;;;;;9.32;100.00;100979.94;5086720;28;20479;-81
2022/05/30 02:09:57;;;;;;;16.23;4.30;;;;;;;9.11;100.00;100960.47;5091099;28;20077;-81
2022/05/30 02:12:22;;;;;;;7.80;3.90;;;;;;;8.95;100.00;100938.84;5070639;28;20035;-81
2022/05/30 02:14:48;;;;;;;31.77;5.72;;;;;;;9.15;100.00;100960.16;5059352;28;20403;-82
2022/05/30 02:17:15;;;;;;;18.65;6.90;;;;;;;9.17;100.00;100963.66;5047519;28;20036;-81
2022/05/30 02:19:43;;;;;;;19.33;4.68;;;;;;;9.17;100.00;100963.66;5082413;28;20040;-81
2022/05/30 02:22:13;;;;;;;10.18;3.67;;;;;;;9.21;100.00;100969.75;5064834;28;20028;-80
2022/05/30 02:24:38;;;;;;;17.63;4.20;;;;;;;9.06;100.00;100977.19;5082686;28;20044;-80
2022/05/30 02:27:09;;;;;;;15.40;4.63;;;;;;;8.98;100.00;100963.22;5092909;28;20036;-80
2022/05/30 02:29:35;;;;;;;14.35;4.25;;;;;;;8.89;100.00;100972.06;5099993;28;20035;-80
2022/05/30 02:32:01;;;;;;;17.13;4.40;;;;;;;8.88;100.00;100962.97;5063830;28;20033;-81
2022/05/30 02:37:17;;;;;;;15.77;4.38;;;;;;;8.99;100.00;100962.25;5075434;28;20470;-80
2022/05/30 02:39:42;;;;;;;16.83;4.70;;;;;;;8.90;100.00;100963.75;5074899;28;20032;-80
2022/05/30 02:42:08;;;;;;;39.40;7.03;;;;;;;8.88;100.00;100968.44;5083193;28;20127;-81
2022/05/30 02:44:34;;;;;;;13.40;4.20;;;;;;;8.87;100.00;100965.81;5094984;28;20044;-80
2022/05/30 02:47:00;;;;;;;13.25;4.05;;;;;;;8.83;100.00;100967.91;5052643;28;20028;-80
2022/05/30 02:49:27;;;;;;;8.68;4.13;;;;;;;8.86;100.00;100973.16;5079046;28;20043;-80
2022/05/30 02:51:54;;;;;;;9.98;3.95;;;;;;;8.82;100.00;100966.13;5082054;28;20462;-81
2022/05/30 02:54:20;;;;;;;11.95;3.72;;;;;;;8.80;100.00;100971.69;5093223;28;20070;-80
2022/05/30 02:56:50;;;;;;;15.88;4.25;;;;;;;8.89;100.00;100969.34;5064265;28;20032;-80
2022/05/30 02:59:16;;;;;;;12.38;3.45;;;;;;;8.87;100.00;100971.28;5089572;28;20028;-81
2022/05/30 03:01:41;;;;;;;9.75;4.90;;;;;;;8.85;100.00;100967.78;5079105;28;20426;-81
2022/05/30 03:04:07;;;;;;;14.68;4.70;;;;;;;8.84;100.00;100972.38;5081465;28;20039;-81
2022/05/30 03:06:32;;;;;;;14.80;3.95;;;;;;;8.80;100.00;100955.31;5071660;28;20029;-81
2022/05/30 03:08:58;;;;;;;13.90;4.45;;;;;;;8.84;100.00;100966.94;5083901;28;20450;-80
2022/05/30 03:11:24;;;;;;;13.60;4.10;;;;;;;8.73;100.00;100969.53;5086322;28;20089;-82
2022/05/30 03:13:49;;;;;;;12.07;3.92;;;;;;;8.63;100.00;100961.97;5092314;28;20391;-82
2022/05/30 03:16:15;;;;;;;22.48;4.22;;;;;;;8.64;100.00;100973.75;5064989;28;20032;-81
2022/05/30 03:18:42;;;;;;;15.05;5.18;;;;;;;8.55;100.00;100971.69;5056191;28;20040;-80
2022/05/30 03:21:08;;;;;;;12.68;4.03;;;;;;;8.52;100.00;100966.44;5065385;28;20040;-79
2022/05/30 03:23:34;;;;;;;16.30;4.10;;;;;;;8.45;100.00;100958.66;5072160;28;20032;-79
2022/05/30 03:25:59;;;;;;;13.10;4.18;;;;;;;8.42;100.00;100966.16;5081042;28;20036;-80
2022/05/30 03:28:25;;;;;;;19.80;4.80;;;;;;;8.37;100.00;100966.47;5083694;28;20035;-80
2022/05/30 03:30:51;;;;;;;16.67;5.78;;;;;;;8.34;100.00;100971.25;5073945;28;20783;-79
2022/05/30 03:33:17;;;;;;;11.27;4.40;;;;;;;8.28;100.00;100978.88;5061685;28;20036;-80
2022/05/30 03:35:43;;;;;;;20.15;4.30;;;;;;;8.21;100.00;100972.06;5074478;28;20029;-82
2022/05/30 03:38:14;;;;;;;14.05;3.92;;;;;;;8.21;100.00;100966.63;5062957;28;20037;-82
2022/05/30 03:40:40;;;;;;;16.23;4.28;;;;;;;8.19;100.00;100974.03;5062819;28;20090;-81
2022/05/30 03:43:09;;;;;;;12.95;5.70;;;;;;;8.16;100.00;100976.09;5084573;28;20044;-82
2022/05/30 03:45:40;;;;;;;15.95;4.47;;;;;;;8.16;100.00;100981.56;5081067;28;20027;-82
2022/05/30 03:48:07;;;;;;;11.32;4.35;;;;;;;8.04;100.00;100970.50;5094845;28;20039;-81
2022/05/30 03:50:33;;;;;;;11.38;4.80;;;;;;;8.18;100.00;100964.13;5092861;28;20032;-80
2022/05/30 03:53:05;;;;;;;8.82;4.35;;;;;;;8.27;100.00;100984.44;5091453;28;20123;-82
2022/05/30 03:55:42;;;;;;;16.30;5.25;;;;;;;8.12;100.00;100971.81;5086193;28;20074;-81
2022/05/30 03:58:09;;;;;;;17.20;5.15;;;;;;;8.24;100.00;100979.19;5088885;28;20037;-82
2022/05/30 04:00:40;;;;;;;16.92;5.57;;;;;;;8.13;100.00;100962.66;5109842;28;20059;-82
2022/05/30 04:03:06;;;;;;;19.10;5.30;;;;;;;8.10;100.00;100967.34;5093273;28;20068;-82
2022/05/30 04:05:32;;;;;;;15.65;5.15;;;;;;;8.26;100.00;100986.31;5095215;28;20032;-81
2022/05/30 04:07:57;;;;;;;15.27;4.70;;;;;;;8.21;100.00;100977.53;5082934;28;20036;-81
2022/05/30 04:10:24;;;;;;;9.70;4.13;;;;;;;8.20;100.00;100988.53;5082299;28;20032;-81
2022/05/30 04:13:03;;;;;;;22.48;7.07;;;;;;;8.08;100.00;100977.50;5087666;28;20039;-81
2022/05/30 04:15:29;;;;;;;24.80;5.15;;;;;;;8.22;100.00;100984.75;5079675;28;20040;-81
2022/05/30 04:17:55;;;;;;;23.15;5.70;;;;;;;8.29;100.00;100990.66;5038512;28;20032;-80
2022/05/30 04:20:21;;;;;;;25.27;5.03;;;;;;;8.39;100.00;100989.03;5087938;28;20036;-81
2022/05/30 04:22:47;;;;;;;15.23;5.50;;;;;;;8.44;100.00;100983.31;5062091;28;20060;-81
2022/05/30 04:25:13;;;;;;;15.63;5.00;;;;;;;8.45;100.00;100982.34;5057907;28;20051;-82
2022/05/30 04:27:39;;;;;;;16.25;5.13;;;;;;;8.50;100.00;100980.19;5088505;28;20036;-81
2022/05/30 04:30:06;;;;;;;10.98;4.85;;;;;;;8.54;100.00;100991.75;5063880;28;20104;-82
2022/05/30 04:32:32;;;;;;;21.63;5.85;;;;;;;8.60;100.00;100986.75;5089262;28;20040;-82
2022/05/30 04:34:57;;;;;;;10.10;5.22;;;;;;;8.69;100.00;100990.72;5079040;28;20029;-80
2022/05/30 04:37:23;;;;;;;18.65;5.15;;;;;;;8.67;100.00;101002.69;5082526;28;20052;-79
2022/05/30 04:39:49;;;;;;;14.82;5.38;;;;;;;8.60;100.00;100997.66;5081654;28;20036;-79
2022/05/30 04:42:14;;;;;;;18.30;5.72;;;;;;;8.69;100.00;100989.81;5076720;28;20553;-81
2022/05/30 04:44:39;;;;;;;16.67;5.25;;;;;;;8.70;100.00;100988.84;5060513;28;20760;-79
2022/05/30 04:47:06;;;;;;;10.85;4.80;;;;;;;8.82;100.00;100993.44;5061195;28;20456;-80
2022/05/30 04:49:33;;;;;;;10.05;4.35;;;;;;;8.90;100.00;100988.31;5088636;28;20028;-78
2022/05/30 04:51:58;;;;;;;12.50;4.63;;;;;;;8.95;100.00;100993.47;5080023;28;20031;-80
2022/05/30 04:54:25;;;;;;;14.07;4.35;;;;;;;8.92;100.00;100986.38;5073884;28;20037;-80
2022/05/30 04:56:51;;;;;;;15.05;4.80;;;;;;;8.94;100.00;100992.59;5084519;28;20068;-79
2022/05/30 04:59:17;;;;;;;15.93;4.88;;;;;;;8.93;100.00;100989.97;5082753;28;20028;-78
2022/05/30 05:01:43;;;;;;;12.75;5.38;;;;;;;8.93;100.00;100998.16;5054444;28;20162;-80
2022/05/30 05:04:11;;;;;;;16.15;4.97;;;;;;;9.14;100.00;101012.16;5084790;28;20070;-80
2022/05/30 05:06:37;;;;;;;13.00;5.05;;;;;;;9.05;100.00;101007.34;5072052;28;20050;-80
2022/05/30 05:09:09;;;;;;;16.75;4.45;;;;;;;9.00;100.00;101004.94;5070913;28;20024;-79
2022/05/30 05:11:37;;;;;;;15.15;4.90;;;;;;;9.01;100.00;101006.69;5072795;28;20036;-80
2022/05/30 05:14:03;;;;;;;10.80;4.47;;;;;;;9.03;100.00;101012.91;5078657;28;20058;-80
2022/05/30 05:16:30;;;;;;;14.52;5.15;;;;;;;9.10;100.00;101000.59;5063128;28;20040;-79
2022/05/30 05:18:56;;;;;;;18.02;5.50;;;;;;;9.32;100.00;100999.91;5080615;28;20498;-80
2022/05/30 05:21:26;;;;;;;16.55;4.80;;;;;;;9.34;100.00;101002.53;5054191;28;20119;-81
2022/05/30 05:23:53;;;;;;;15.57;4.78;;;;;;;9.34;100.00;101008.88;5096126;28;20486;-80
2022/05/30 05:26:19;;;;;;;16.38;4.70;;;;;;;9.46;100.00;101011.72;5087225;28;20037;-81
2022/05/30 05:28:46;;;;;;;16.73;4.60;;;;;;;9.40;100.00;101006.72;5087397;28;20051;-79
2022/05/30 05:31:26;;;;;;;15.93;4.70;;;;;;;9.45;100.00;101010.84;5075692;28;20033;-79
2022/05/30 05:33:52;;;;;;;11.32;4.32;;;;;;;9.61;100.00;101015.19;5091049;28;20036;-80
2022/05/30 05:36:24;;;;;;;21.13;5.30;;;;;;;9.61;100.00;101012.47;5074034;28;20028;-79
2022/05/30 05:38:51;;;;;;;11.95;4.70;;;;;;;9.78;100.00;101014.84;5098867;28;20040;-78
2022/05/30 05:41:17;;;;;;;15.38;5.85;;;;;;;9.67;100.00;101012.88;5076712;28;20036;-80
2022/05/30 05:43:43;;;;;;;20.15;6.03;;;;;;;9.70;100.00;101023.59;5091041;28;20039;-78
2022/05/30 05:46:14;;;;;;;28.38;7.45;;;;;;;9.88;100.00;101015.91;5076007;28;20491;-79
2022/05/30 05:48:39;;;;;;;21.33;7.00;;;;;;;10.00;100.00;101021.47;5071005;28;20032;-80
2022/05/30 05:51:05;;;;;;;20.80;7.63;;;;;;;10.01;100.00;101017.75;5073336;28;20106;-80
2022/05/30 05:53:30;;;;;;;14.07;5.95;;;;;;;10.02;100.00;101023.09;5061464;28;20549;-79
2022/05/30 05:55:56;;;;;;;20.30;6.45;;;;;;;10.19;100.00;101023.72;5062873;28;20059;-80
2022/05/30 05:58:22;;;;;;;15.70;5.38;;;;;;;10.28;100.00;101025.75;5066193;28;20101;-78
2022/05/30 06:00:48;;;;;;;18.48;6.35;;;;;;;10.36;100.00;101031.53;5083857;28;20036;-80
2022/05/30 06:03:13;;;;;;;14.13;4.53;;;;;;;10.46;100.00;101029.88;5079495;28;20033;-80
2022/05/30 06:05:40;;;;;;;15.98;4.93;;;;;;;10.60;100.00;101037.03;5076133;28;20434;-80
2022/05/30 06:08:06;;;;;;;19.70;5.97;;;;;;;10.63;100.00;101038.66;5073696;28;20024;-80
2022/05/30 06:10:33;;;;;;;13.90;4.95;;;;;;;10.96;100.00;101035.19;5068203;28;20038;-80
2022/05/30 06:12:58;;;;;;;20.25;6.10;;;;;;;11.00;100.00;101033.06;5048375;28;20070;-80
2022/05/30 06:15:24;;;;;;;20.00;6.07;;;;;;;10.99;100.00;101032.19;5094724;28;20519;-79
2022/05/30 06:17:50;;;;;;;15.23;5.63;;;;;;;10.88;100.00;101040.38;5071884;28;20063;-80
2022/05/30 06:20:17;;;;;;;12.45;5.82;;;;;;;11.14;100.00;101035.59;5063213;28;20040;-82
2022/05/30 06:22:44;;;;;;;15.88;5.22;;;;;;;11.08;100.00;101030.59;5079471;28;20063;-81
2022/05/30 06:25:11;;;;;;;17.05;4.40;;;;;;;11.38;100.00;101037.41;5092902;28;20659;-81
2022/05/30 06:27:37;;;;;;;11.45;4.88;;;;;;;11.28;100.00;101031.78;5087967;28;20064;-80
2022/05/30 06:30:04;;;;;;;20.45;4.97;;;;;;;11.19;100.00;101033.38;5067339;28;20414;-78
2022/05/30 06:32:29;;;;;;;18.25;5.47;;;;;;;11.52;100.00;101048.13;5099459;28;20383;-79
2022/05/30 06:34:55;;;;;;;14.73;5.75;;;;;;;12.29;100.00;101044.63;5059678;28;20033;-78
2022/05/30 06:37:22;;;;;;;17.00;6.82;;;;;;;12.16;100.00;101046.66;5069147;28;20079;-78
2022/05/30 06:39:50;;;;;;;14.00;5.93;;;;;;;12.18;100.00;101050.13;5056129;28;20035;-77
2022/05/30 06:42:15;;;;;;;14.55;5.20;;;;;;;12.43;100.00;101046.22;5074089;28;20029;-80
2022/05/30 06:44:41;;;;;;;12.07;4.90;;;;;;;13.30;100.00;101056.22;5060314;28;20069;-77
2022/05/30 06:47:07;;;;;;;8.82;4.03;;;;;;;13.22;100.00;101054.13;5073372;28;20033;-78
2022/05/30 06:49:34;;;;;;;15.40;4.53;;;;;;;13.12;100.00;101044.94;5081411;28;20045;-78
2022/05/30 06:52:00;;;;;;;19.27;4.57;;;;;;;14.06;100.00;101041.28;5083827;28;20498;-78
2022/05/30 06:54:26;;;;;;;12.52;3.80;;;;;;;13.86;100.00;101052.22;5063748;28;20025;-78
2022/05/30 06:59:37;;;;;;;4.38;1.58;;;;;;;13.70;100.00;101049.97;5092636;28;20036;-79
2022/05/30 07:02:05;;;;;;;12.35;2.15;;;;;;;13.60;98.91;101055.41;5076656;28;20040;-79
2022/05/30 07:04:32;;;;;;;7.80;2.00;;;;;;;13.96;95.08;101053.13;5078693;28;20035;-79
2022/05/30 07:06:58;;;;;;;13.85;2.15;;;;;;;14.08;95.48;101055.78;5083327;28;20020;-78
2022/05/30 07:09:24;;;;;;;11.05;2.25;;;;;;;14.18;93.14;101042.91;5060527;28;20032;-78
2022/05/30 07:11:50;;;;;;;8.50;2.90;;;;;;;14.51;90.60;101049.94;5034524;28;20088;-78
2022/05/30 07:14:16;;;;;;;10.93;3.80;;;;;;;14.74;87.83;101044.22;5055620;28;20162;-79
2022/05/30 07:16:43;;;;;;;10.00;1.48;;;;;;;14.99;87.64;101050.16;5086818;28;20043;-78
2022/05/30 07:19:09;;;;;;;6.43;1.40;;;;;;;14.98;84.01;101045.66;5074036;28;20056;-77
2022/05/30 07:21:36;;;;;;;11.90;2.08;;;;;;;15.01;86.51;101048.13;5092237;28;20067;-78
2022/05/30 07:24:03;;;;;;;5.75;1.90;;;;;;;15.36;86.20;101047.50;5083303;28;20041;-78
2022/05/30 07:26:29;;;;;;;10.48;2.03;;;;;;;15.13;88.72;101055.22;5067532;28;20075;-78
2022/05/30 07:28:55;;;;;;;10.60;2.00;;;;;;;16.92;79.31;101050.56;5068117;28;20040;-78
2022/05/30 07:31:22;;;;;;;6.80;1.80;;;;;;;16.67;76.28;101055.81;5086796;28;20069;-77
2022/05/30 07:33:48;;;;;;;9.32;2.00;;;;;;;16.11;83.43;101053.09;5080477;28;20041;-78
2022/05/30 07:36:18;;;;;;;7.65;2.20;;;;;;;15.56;80.69;101051.09;5074289;28;20036;-78
2022/05/30 07:38:44;;;;;;;12.27;1.85;;;;;;;15.31;81.28;101051.72;5085409;28;20028;-78
2022/05/30 07:41:10;;;;;;;7.45;1.63;;;;;;;14.55;81.24;101055.19;5047924;28;20066;-78
2022/05/30 07:43:36;;;;;;;15.57;1.95;;;;;;;14.47;83.60;101047.63;5057018;28;20036;-79
2022/05/30 07:46:07;;;;;;;14.75;2.10;;;;;;;13.80;88.92;101055.50;5085058;28;20047;-77
2022/05/30 07:48:34;;;;;;;12.55;2.75;;;;;;;13.29;97.90;101045.34;5079472;28;20029;-79
2022/05/30 07:51:01;;;;;;;16.27;3.03;;;;;;;13.11;100.00;101051.44;5079323;28;20028;-78
2022/05/30 07:53:28;;;;;;;12.95;3.30;;;;;;;13.22;100.00;101053.28;5062311;28;20036;-78
2022/05/30 07:55:53;;;;;;;10.02;2.50;;;;;;;13.10;100.00;101046.97;5061993;28;20787;-78
2022/05/30 07:58:19;;;;;;;9.15;2.35;;;;;;;13.22;100.00;101051.38;5081857;28;20067;-77
2022/05/30 08:00:49;;;;;;;8.93;2.22;;;;;;;12.81;96.88;101044.84;5079052;28;20040;-77
2022/05/30 08:03:17;;;;;;;10.70;2.28;;;;;;;12.58;100.00;101044.06;5075081;28;20056;-79
2022/05/30 08:05:45;;;;;;;10.85;2.28;;;;;;;12.57;100.00;101049.69;5047769;28;20029;-78
2022/05/30 08:08:11;;;;;;;11.55;1.70;;;;;;;12.58;100.00;101043.19;5071805;28;20056;-78
2022/05/30 08:10:37;;;;;;;17.85;3.05;;;;;;;12.56;98.26;101045.19;5051235;28;20083;-79
2022/05/30 08:13:03;;;;;;;11.75;2.38;;;;;;;12.93;97.45;101037.41;5082809;28;20063;-78
2022/05/30 08:15:30;;;;;;;11.00;2.88;;;;;;;12.81;96.65;101033.00;5082467;28;20036;-78
2022/05/30 08:17:58;;;;;;;11.60;3.28;;;;;;;12.89;97.37;101041.44;5078373;28;20186;-78
2022/05/30 08:20:26;;;;;;;12.00;2.42;;;;;;;12.86;98.15;101037.06;5064878;28;20028;-79
2022/05/30 08:22:51;;;;;;;13.40;2.35;;;;;;;13.32;91.55;101051.47;5068146;28;20107;-77
2022/05/30 08:25:19;;;;;;;10.15;1.75;;;;;;;12.93;91.59;101048.41;5053249;28;20067;-77
2022/05/30 08:27:47;;;;;;;9.07;2.00;;;;;;;12.98;91.89;101050.75;5071706;28;20028;-78
2022/05/30 08:30:18;;;;;;;12.93;2.85;;;;;;;12.92;96.10;101049.44;5049509;28;20070;-77
2022/05/30 08:32:45;;;;;;;15.57;1.90;;;;;;;13.09;94.17;101058.97;5083215;28;20062;-78
2022/05/30 08:35:16;;;;;;;10.88;2.25;;;;;;;13.05;92.71;101055.59;5071129;28;20044;-78
2022/05/30 08:37:42;;;;;;;17.23;2.42;;;;;;;13.20;89.76;101064.41;5079793;28;20039;-77
2022/05/30 08:43:37;;;;;;;9.75;1.60;;;;;;;13.05;91.20;101068.47;5076737;28;20066;-78
2022/05/30 08:46:32;;;;;;;10.43;1.30;;;;;;;13.23;88.30;101061.38;5050724;28;20032;-78
2022/05/30 08:49:22;;;;;;;9.48;2.17;;;;;;;13.73;81.84;101065.34;5085371;28;20028;-79
2022/05/30 08:51:59;;;;;;;12.43;1.80;;;;;;;13.36;91.04;101065.81;5098328;28;20032;-79
2022/05/30 08:54:47;;;;;;;9.90;1.45;;;;;;;12.93;87.86;101064.91;5086685;28;20113;-79
2022/05/30 08:57:48;;;;;;;11.10;1.90;;;;;;;12.97;90.54;101066.41;5077237;28;20041;-78
2022/05/30 09:00:29;;;;;;;18.48;2.40;;;;;;;12.90;91.16;101062.41;5049720;28;20480;-79
2022/05/30 09:03:16;;;;;;;13.98;2.28;;;;;;;12.99;88.66;101061.63;5059375;28;20059;-77
2022/05/30 09:06:05;;;;;;;16.08;2.00;;;;;;;13.09;91.94;101058.97;5077789;28;20483;-79
2022/05/30 09:08:40;;;;;;;10.40;2.50;;;;;;;13.10;88.61;101055.22;5094892;28;20061;-79
2022/05/30 09:11:28;;;;;;;12.48;1.73;;;;;;;13.31;86.97;101059.81;5068915;28;20028;-78
2022/05/30 09:13:58;;;;;;;8.95;1.77;;;;;;;13.38;89.32;101059.19;5062684;28;20031;-77
2022/05/30 09:16:29;;;;;;;11.20;3.35;;;;;;;13.20;88.84;101066.28;5081254;28;20028;-77
2022/05/30 09:18:57;;;;;;;17.75;2.97;;;;;;;13.71;89.31;101070.13;5082214;28;20040;-79
2022/05/30 09:21:26;;;;;;;14.15;3.95;;;;;;;13.50;89.93;101065.50;5064019;28;20473;-79
2022/05/30 09:23:52;;;;;;;17.48;2.85;;;;;;;15.16;82.90;101063.19;5066355;28;20066;-77
2022/05/30 09:26:33;;;;;;;17.38;4.10;;;;;;;16.21;81.43;101058.56;5088626;28;20060;-78
2022/05/30 09:29:24;;;;;;;13.10;2.90;;;;;;;16.23;78.57;101062.03;5084714;28;20167;-79
2022/05/30 09:32:09;;;;;;;11.20;3.58;;;;;;;16.77;76.36;101055.75;5085411;28;20051;-76
2022/05/30 09:34:49;;;;;;;15.07;2.17;;;;;;;17.85;67.48;101061.16;5089048;28;20047;-78
2022/05/30 09:37:38;;;;;;;11.93;2.78;;;;;;;17.12;68.64;101059.56;5082673;28;20535;-78
2022/05/30 09:40:04;;;;;;;21.75;2.40;;;;;;;16.05;68.55;101059.22;5094961;28;20071;-79
2022/05/30 09:42:37;;;;;;;12.10;2.35;;;;;;;16.49;68.98;101051.13;5067059;28;20127;-78
2022/05/30 09:45:24;;;;;;;18.15;3.15;;;;;;;16.61;67.68;101048.13;5099506;28;20103;-78
2022/05/30 09:47:59;;;;;;;10.35;2.40;;;;;;;15.85;71.91;101052.06;5099837;28;20032;-78
2022/05/30 09:50:25;;;;;;;21.52;3.17;;;;;;;15.46;74.84;101053.00;5077303;28;20085;-79
2022/05/30 09:52:50;;;;;;;11.70;2.53;;;;;;;15.45;76.71;101051.25;5099551;28;20561;-78
2022/05/30 09:55:44;;;;;;;18.30;3.42;;;;;;;16.25;73.22;101059.13;5085102;28;20377;-80
2022/05/30 09:58:11;;;;;;;10.02;3.20;;;;;;;16.33;70.20;101054.59;5097805;28;20032;-79
2022/05/30 10:00:48;;;;;;;12.70;3.35;;;;;;;15.65;70.73;101053.97;5066071;28;20112;-79
2022/05/30 10:03:37;;;;;;;13.52;3.08;;;;;;;15.20;72.60;101058.25;5085671;28;20024;-78
2022/05/30 10:06:18;;;;;;;16.00;3.15;;;;;;;15.04;72.30;101062.50;5089790;28;20499;-76
2022/05/30 10:08:46;;;;;;;10.02;3.10;;;;;;;15.22;70.40;101061.75;5078626;28;20114;-76
2022/05/30 10:11:35;;;;;;;15.88;3.47;;;;;;;14.91;71.88;101064.66;5074511;28;20039;-77
2022/05/30 10:14:20;;;;;;;12.10;2.80;;;;;;;14.74;74.17;101060.75;5076550;28;20025;-79
2022/05/30 10:16:46;;;;;;;13.15;3.30;;;;;;;14.59;73.46;101053.88;5108276;28;20037;-76
2022/05/30 10:19:24;;;;;;;13.45;2.72;;;;;;;14.99;70.73;101066.72;5077007;28;20044;-77
2022/05/30 10:28:49;;;;;;;15.45;3.42;;;;;;;14.54;74.52;101068.06;5076015;28;20041;-77
2022/05/30 10:31:35;;;;;;;11.20;3.00;;;;;;;14.53;73.99;101064.44;5088026;28;20122;-78
2022/05/30 10:34:42;;;;;;;7.20;3.35;;;;;;;14.77;74.66;101068.72;5074552;28;20147;-78
2022/05/30 10:37:11;;;;;;;11.23;3.22;;;;;;;14.83;71.87;101061.75;4998553;28;20042;-79
2022/05/30 10:39:54;;;;;;;7.70;3.33;;;;;;;14.69;69.82;101060.28;5058234;28;20067;-78
2022/05/30 10:42:30;;;;;;;14.40;3.72;;;;;;;14.88;69.10;101064.97;5077649;28;20502;-78
2022/05/30 10:45:02;;;;;;;7.75;3.70;;;;;;;14.99;68.15;101067.56;5081551;28;20048;-79
2022/05/30 10:47:44;;;;;;;16.07;3.90;;;;;;;14.56;69.27;101067.94;5062640;28;20115;-79
2022/05/30 10:50:52;;;;;;;15.02;3.47;;;;;;;14.67;70.18;101076.97;5090081;28;20103;-77
2022/05/30 10:53:30;;;;;;;99.80;6.10;;;;;;;15.00;72.61;101072.09;5075620;28;20075;-78
2022/05/30 10:55:59;;;;;;;7.82;3.10;;;;;;;15.14;72.40;101076.28;5110284;28;20059;-78
2022/05/30 10:58:49;;;;;;;11.88;3.00;;;;;;;15.52;70.28;101077.25;5081303;28;20086;-78
2022/05/30 11:01:29;;;;;;;15.60;3.88;;;;;;;15.93;68.49;101072.34;5076653;28;20123;-78
2022/05/30 11:04:12;;;;;;;13.48;4.40;;;;;;;16.34;65.79;101070.13;5079514;28;20038;-78
2022/05/30 11:06:42;;;;;;;13.43;4.03;;;;;;;16.26;68.86;101075.53;5090279;28;20067;-78
2022/05/30 11:09:28;;;;;;;16.48;3.65;;;;;;;17.19;64.41;101068.97;5113935;28;20024;-81
2022/05/30 11:12:13;;;;;;;13.27;3.45;;;;;;;17.18;64.03;101072.75;5083022;28;20066;-79
2022/05/30 11:14:42;;;;;;;11.45;3.60;;;;;;;17.55;62.06;101074.47;5084408;28;20033;-81
2022/05/30 11:17:33;;;;;;;7.88;3.88;;;;;;;17.54;61.19;101081.00;5085121;28;20032;-81
2022/05/30 11:20:15;;;;;;;9.63;3.72;;;;;;;17.71;60.48;101066.25;5067755;28;20391;-80
2022/05/30 11:22:41;;;;;;;11.10;4.00;;;;;;;18.10;63.12;101073.25;5099960;28;20056;-80
2022/05/30 11:25:14;;;;;;;9.38;3.80;;;;;;;17.90;55.23;101070.72;5082799;28;20044;-81
2022/05/30 11:27:51;;;;;;;11.65;4.05;;;;;;;18.13;59.27;101062.69;5100982;28;20035;-80
2022/05/30 11:30:55;;;;;;;14.75;3.47;;;;;;;18.47;62.08;101066.50;5097137;28;20040;-80
2022/05/30 11:33:54;;;;;;;7.25;3.25;;;;;;;17.96;54.75;101059.00;5096682;28;20135;-79
2022/05/30 11:36:22;;;;;;;12.32;3.80;;;;;;;17.23;53.19;101064.84;5085343;28;20053;-81
2022/05/30 11:39:03;;;;;;;15.90;4.53;;;;;;;17.24;54.72;101061.06;5064739;28;20043;-79
2022/05/30 11:41:42;;;;;;;10.27;3.55;;;;;;;17.79;56.68;101054.34;5092550;28;20483;-81
2022/05/30 11:44:25;;;;;;;151.93;11.35;;;;;;;18.05;52.88;101059.88;5081160;28;20032;-80
2022/05/30 11:46:58;;;;;;;94.85;8.15;;;;;;;17.72;55.49;101058.81;5093468;28;20032;-79
2022/05/30 11:49:34;;;;;;;16.40;4.43;;;;;;;18.17;57.05;101054.94;5084229;28;20044;-81
2022/05/30 11:52:25;;;;;;;13.10;4.18;;;;;;;17.54;54.38;101056.94;5098297;28;20033;-80